Time;durP1;ratioP1;P1;durP2;ratioP2;P2;SDS_P1;SDS_P2;PMS_P1;PMS_P2;Temp;Humidity;BMP_temperature;BMP_pressure;BME280_temperature;BME280_humidity;BME280_pressure;Samples;Min_cycle;Max_cycle;Signal;HPM_P1;HPM_P2
2023/10/02 00:02:40;;;;;;;25.40;15.50;;;;;;;;;;5013652;28;20222;-66
2023/10/02 00:05:05;;;;;;;24.07;14.77;;;;;;;;;;5014530;28;20207;-67
2023/10/02 00:07:35;;;;;;;23.20;14.77;;;;;;;;;;5014822;28;20175;-67
2023/10/02 00:10:01;;;;;;;24.30;14.97;;;;;;;;;;5014595;28;20587;-67
2023/10/02 00:12:31;;;;;;;23.30;14.77;;;;;;;;;;5014741;28;20180;-66
2023/10/02 00:14:58;;;;;;;27.27;14.47;;;;;;;;;;5013035;28;20227;-67
2023/10/02 00:17:24;;;;;;;22.77;14.40;;;;;;;;;;5014568;28;20180;-66
2023/10/02 00:19:57;;;;;;;24.53;14.73;;;;;;;;;;5014456;28;20661;-67
2023/10/02 00:22:36;;;;;;;29.73;14.27;;;;;;;;;;5014801;28;20164;-66
2023/10/02 00:25:27;;;;;;;22.40;14.13;;;;;;;;;;5014578;28;20585;-66
2023/10/02 00:27:54;;;;;;;24.47;14.43;;;;;;;;;;5014635;28;20193;-67
2023/10/02 00:30:30;;;;;;;23.97;14.60;;;;;;;;;;5014844;28;20203;-66
2023/10/02 00:32:56;;;;;;;24.60;14.13;;;;;;;;;;5013881;28;20178;-65
2023/10/02 00:35:22;;;;;;;19.23;14.03;;;;;;;;;;5014866;28;20215;-65
2023/10/02 00:37:51;;;;;;;24.40;14.53;;;;;;;;;;5013415;28;20642;-65
2023/10/02 00:40:28;;;;;;;22.70;14.00;;;;;;;;;;5014266;28;20172;-65
2023/10/02 00:42:59;;;;;;;23.70;15.03;;;;;;;;;;5012721;28;20187;-65
2023/10/02 00:45:38;;;;;;;22.97;13.77;;;;;;;;;;5012597;28;20208;-65
2023/10/02 00:50:49;;;;;;;21.20;13.57;;;;;;;;;;5014342;28;20182;-65
2023/10/02 00:53:19;;;;;;;22.30;13.67;;;;;;;;;;5013863;28;20266;-65
2023/10/02 00:55:46;;;;;;;21.00;13.70;;;;;;;;;;5014124;28;20635;-65
2023/10/02 00:58:15;;;;;;;24.63;15.77;;;;;;;;;;5014121;28;20180;-66
2023/10/02 01:00:50;;;;;;;26.60;16.17;;;;;;;;;;5014059;28;20179;-65
2023/10/02 01:03:17;;;;;;;25.03;15.43;;;;;;;;;;5013952;28;20156;-65
2023/10/02 01:05:50;;;;;;;23.20;15.27;;;;;;;;;;5012226;28;20205;-65
2023/10/02 01:08:23;;;;;;;22.63;14.60;;;;;;;;;;5012990;28;20156;-67
2023/10/02 01:10:56;;;;;;;20.43;13.53;;;;;;;;;;5013621;28;20207;-65
2023/10/02 01:13:24;;;;;;;20.67;13.70;;;;;;;;;;5012048;28;20184;-65
2023/10/02 01:15:50;;;;;;;22.67;14.13;;;;;;;;;;5013168;28;20281;-64
2023/10/02 01:18:27;;;;;;;20.60;13.50;;;;;;;;;;5013332;28;20183;-65
2023/10/02 01:20:53;;;;;;;21.07;13.50;;;;;;;;;;5013513;28;20156;-66
2023/10/02 01:23:30;;;;;;;21.80;13.73;;;;;;;;;;5013792;28;20176;-65
2023/10/02 01:25:57;;;;;;;22.10;14.10;;;;;;;;;;5013830;28;20620;-65
2023/10/02 01:28:51;;;;;;;20.63;14.20;;;;;;;;;;5013922;28;20183;-65
2023/10/02 01:31:35;;;;;;;25.40;14.37;;;;;;;;;;5013969;28;20206;-66
2023/10/02 01:34:02;;;;;;;23.87;14.10;;;;;;;;;;5013481;28;20195;-65
2023/10/02 01:36:31;;;;;;;26.47;14.47;;;;;;;;;;5011791;28;20645;-65
2023/10/02 01:38:59;;;;;;;22.73;13.30;;;;;;;;;;5013283;28;20469;-65
2023/10/02 01:41:28;;;;;;;23.10;13.70;;;;;;;;;;5013079;28;20206;-66
2023/10/02 01:43:56;;;;;;;24.00;13.17;;;;;;;;;;5011789;28;20580;-66
2023/10/02 01:46:22;;;;;;;23.60;12.93;;;;;;;;;;5013429;28;20558;-65
2023/10/02 01:48:51;;;;;;;25.63;14.33;;;;;;;;;;5014018;28;20208;-66
2023/10/02 01:51:25;;;;;;;23.20;13.13;;;;;;;;;;5013184;28;20188;-66
2023/10/02 01:53:55;;;;;;;22.60;13.90;;;;;;;;;;5013396;28;20246;-66
2023/10/02 01:56:22;;;;;;;23.03;13.17;;;;;;;;;;5013128;28;20527;-66
2023/10/02 01:58:49;;;;;;;24.67;14.60;;;;;;;;;;5013589;28;20180;-66
2023/10/02 02:01:15;;;;;;;22.60;14.17;;;;;;;;;;5011790;28;20241;-66
2023/10/02 02:03:42;;;;;;;20.97;13.47;;;;;;;;;;5012947;28;20600;-66
2023/10/02 02:06:09;;;;;;;22.20;13.97;;;;;;;;;;5013216;28;20290;-66
2023/10/02 02:08:36;;;;;;;20.80;12.87;;;;;;;;;;5013077;28;20233;-66
2023/10/02 02:11:16;;;;;;;20.77;13.20;;;;;;;;;;5013159;28;20187;-66
2023/10/02 02:13:47;;;;;;;22.57;13.60;;;;;;;;;;5013368;28;20282;-68
2023/10/02 02:16:15;;;;;;;21.27;13.47;;;;;;;;;;5014184;28;20203;-67
2023/10/02 02:18:50;;;;;;;19.03;12.67;;;;;;;;;;5021803;28;20162;-72
2023/10/02 02:21:17;;;;;;;20.93;12.47;;;;;;;;;;5026514;28;20156;-68
2023/10/02 02:23:45;;;;;;;20.63;12.67;;;;;;;;;;5018486;28;20546;-66
2023/10/02 02:26:20;;;;;;;20.27;12.93;;;;;;;;;;5017799;28;20199;-67
2023/10/02 02:28:46;;;;;;;20.03;12.80;;;;;;;;;;5016071;28;20199;-67
2023/10/02 02:31:30;;;;;;;22.60;13.43;;;;;;;;;;5015857;28;20198;-66
2023/10/02 02:34:04;;;;;;;20.57;13.37;;;;;;;;;;5017209;28;20199;-66
2023/10/02 02:36:41;;;;;;;20.70;12.83;;;;;;;;;;5016938;28;20207;-67
2023/10/02 02:39:16;;;;;;;20.30;12.70;;;;;;;;;;5017087;28;20164;-66
2023/10/02 02:41:43;;;;;;;21.77;12.67;;;;;;;;;;5016563;28;20188;-67
2023/10/02 02:44:29;;;;;;;23.77;12.43;;;;;;;;;;5016611;28;20184;-66
2023/10/02 02:46:55;;;;;;;18.77;12.30;;;;;;;;;;5016708;28;20192;-66
2023/10/02 02:49:21;;;;;;;21.80;12.43;;;;;;;;;;5016447;28;20604;-66
2023/10/02 02:51:48;;;;;;;20.20;12.07;;;;;;;;;;5015284;28;20716;-67
2023/10/02 02:54:15;;;;;;;18.23;12.23;;;;;;;;;;5016286;28;20207;-66
2023/10/02 02:56:41;;;;;;;18.30;12.47;;;;;;;;;;5016598;28;20262;-66
2023/10/02 02:59:08;;;;;;;20.03;12.73;;;;;;;;;;5016228;28;20260;-66
2023/10/02 03:01:34;;;;;;;21.80;13.23;;;;;;;;;;5016369;28;20179;-66
2023/10/02 03:04:11;;;;;;;18.57;12.17;;;;;;;;;;5016219;28;20630;-66
2023/10/02 03:06:37;;;;;;;18.83;12.27;;;;;;;;;;5014941;28;20523;-67
2023/10/02 03:09:06;;;;;;;21.00;12.73;;;;;;;;;;5014492;28;20262;-66
2023/10/02 03:11:32;;;;;;;19.90;12.03;;;;;;;;;;5015684;28;20237;-67
2023/10/02 03:14:12;;;;;;;21.37;12.60;;;;;;;;;;5016064;28;20195;-67
2023/10/02 03:16:38;;;;;;;21.97;11.90;;;;;;;;;;5014388;28;20184;-66
2023/10/02 03:19:07;;;;;;;22.60;13.43;;;;;;;;;;5014232;28;20650;-66
2023/10/02 03:21:38;;;;;;;19.60;12.10;;;;;;;;;;5015796;28;20238;-66
2023/10/02 03:24:04;;;;;;;22.80;12.60;;;;;;;;;;5014323;28;20656;-66
2023/10/02 03:29:02;;;;;;;23.73;12.97;;;;;;;;;;5015763;28;20271;-66
2023/10/02 03:31:36;;;;;;;19.87;13.07;;;;;;;;;;5014566;28;20164;-66
2023/10/02 03:34:24;;;;;;;23.37;13.47;;;;;;;;;;5014021;28;20657;-66
2023/10/02 03:36:49;;;;;;;21.97;12.57;;;;;;;;;;5015193;28;20198;-66
2023/10/02 03:39:51;;;;;;;20.80;12.73;;;;;;;;;;5015369;28;20176;-66
2023/10/02 03:42:12;;;;;;;22.30;13.57;;;;;;;;;;5015159;28;20186;-66
2023/10/02 03:44:39;;;;;;;18.67;12.13;;;;;;;;;;5013804;28;20258;-66
2023/10/02 03:47:05;;;;;;;18.13;12.27;;;;;;;;;;5013768;28;20191;-66
2023/10/02 03:49:33;;;;;;;22.10;13.00;;;;;;;;;;5015082;28;20186;-66
2023/10/02 03:52:00;;;;;;;19.87;13.27;;;;;;;;;;5015010;28;20180;-66
2023/10/02 03:54:29;;;;;;;20.03;12.27;;;;;;;;;;5014682;28;20246;-66
2023/10/02 03:56:55;;;;;;;20.70;12.17;;;;;;;;;;5015274;28;20179;-66
2023/10/02 03:59:26;;;;;;;22.67;12.43;;;;;;;;;;5014939;28;20172;-65
2023/10/02 04:01:53;;;;;;;18.77;11.77;;;;;;;;;;5013540;28;20172;-65
2023/10/02 04:04:21;;;;;;;20.23;12.40;;;;;;;;;;5013436;28;20195;-65
2023/10/02 04:06:47;;;;;;;19.03;12.33;;;;;;;;;;5014733;28;20314;-65
2023/10/02 04:11:43;;;;;;;21.03;12.07;;;;;;;;;;5014941;28;20199;-65
2023/10/02 04:14:18;;;;;;;22.67;12.87;;;;;;;;;;5013212;28;20219;-66
2023/10/02 04:17:01;;;;;;;20.53;12.37;;;;;;;;;;5013270;28;20233;-66
2023/10/02 04:19:27;;;;;;;20.23;12.17;;;;;;;;;;5015504;28;20529;-65
2023/10/02 04:21:56;;;;;;;21.17;12.23;;;;;;;;;;5013192;28;20291;-65
2023/10/02 04:24:25;;;;;;;20.13;12.47;;;;;;;;;;5014464;28;20172;-65
2023/10/02 04:26:54;;;;;;;22.00;12.80;;;;;;;;;;5014491;28;20612;-65
2023/10/02 04:29:29;;;;;;;26.40;12.67;;;;;;;;;;5014336;28;20598;-65
2023/10/02 04:32:12;;;;;;;18.83;12.57;;;;;;;;;;5014708;28;20637;-65
2023/10/02 04:34:46;;;;;;;20.13;11.77;;;;;;;;;;5014475;28;20227;-65
2023/10/02 04:37:32;;;;;;;23.47;12.53;;;;;;;;;;5014476;28;20156;-65
2023/10/02 04:42:25;;;;;;;22.57;13.53;;;;;;;;;;5014063;28;20171;-65
2023/10/02 04:44:58;;;;;;;20.17;12.23;;;;;;;;;;5012691;28;20342;-65
2023/10/02 04:47:26;;;;;;;20.67;12.13;;;;;;;;;;5013958;28;20604;-65
2023/10/02 04:53:19;;;;;;;22.67;13.30;;;;;;;;;;5014325;28;20598;-65
2023/10/02 04:55:25;;;;;;;23.83;12.33;;;;;;;;;;5008028;28;20337;-65
2023/10/02 04:57:55;;;;;;;24.13;13.17;;;;;;;;;;5014176;28;20206;-65
2023/10/02 05:00:32;;;;;;;20.47;12.00;;;;;;;;;;5013983;28;20190;-65
2023/10/02 05:03:09;;;;;;;22.33;12.47;;;;;;;;;;5013791;28;20160;-66
2023/10/02 05:05:47;;;;;;;22.17;13.17;;;;;;;;;;5013978;28;20199;-66
2023/10/02 05:08:20;;;;;;;20.13;12.60;;;;;;;;;;5012384;28;20180;-66
2023/10/02 05:10:56;;;;;;;22.50;12.37;;;;;;;;;;5014373;28;20160;-65
2023/10/02 05:16:07;;;;;;;22.23;13.30;;;;;;;;;;5013685;28;20281;-66
2023/10/02 05:18:33;;;;;;;25.00;13.83;;;;;;;;;;5013536;28;20172;-65
2023/10/02 05:21:01;;;;;;;21.07;13.30;;;;;;;;;;5013462;28;20178;-66
2023/10/02 05:23:28;;;;;;;23.43;13.03;;;;;;;;;;5013578;28;20178;-66
2023/10/02 05:25:54;;;;;;;22.20;13.10;;;;;;;;;;5013728;28;20279;-66
2023/10/02 05:28:20;;;;;;;24.17;13.87;;;;;;;;;;5012156;28;20212;-67
2023/10/02 05:30:46;;;;;;;22.47;14.37;;;;;;;;;;5013778;28;20199;-66
2023/10/02 05:33:16;;;;;;;23.07;13.03;;;;;;;;;;5014192;28;20183;-66
2023/10/02 05:35:45;;;;;;;23.47;14.53;;;;;;;;;;5013337;28;20196;-66
2023/10/02 05:38:16;;;;;;;20.20;13.17;;;;;;;;;;5013564;28;20279;-67
2023/10/02 05:40:47;;;;;;;20.60;13.70;;;;;;;;;;5013296;28;20160;-66
2023/10/02 05:43:21;;;;;;;23.40;13.80;;;;;;;;;;5013857;28;20156;-66
2023/10/02 05:45:47;;;;;;;22.73;12.97;;;;;;;;;;5013720;28;20191;-66
2023/10/02 05:50:56;;;;;;;20.37;12.57;;;;;;;;;;5013218;28;20166;-66
2023/10/02 05:53:26;;;;;;;21.13;12.87;;;;;;;;;;5011277;28;20183;-65
2023/10/02 05:56:05;;;;;;;24.47;14.00;;;;;;;;;;5013261;28;20198;-66
2023/10/02 05:58:31;;;;;;;25.57;15.73;;;;;;;;;;5013147;28;20167;-67
2023/10/02 06:01:03;;;;;;;30.20;17.80;;;;;;;;;;5011864;28;20172;-67
2023/10/02 06:03:34;;;;;;;25.43;15.23;;;;;;;;;;5013103;28;20249;-67
2023/10/02 06:06:15;;;;;;;25.33;14.53;;;;;;;;;;5013262;28;20673;-66
2023/10/02 06:09:12;;;;;;;24.77;16.27;;;;;;;;;;5013038;28;20156;-66
2023/10/02 06:11:59;;;;;;;23.33;13.80;;;;;;;;;;5013682;28;20153;-66
2023/10/02 06:14:24;;;;;;;20.93;13.40;;;;;;;;;;5012730;28;20203;-66
2023/10/02 06:16:52;;;;;;;24.17;13.03;;;;;;;;;;5013248;28;20321;-67
2023/10/02 06:19:18;;;;;;;22.43;13.17;;;;;;;;;;5011529;28;20653;-66
2023/10/02 06:24:27;;;;;;;20.70;12.70;;;;;;;;;;5013106;28;20170;-67
2023/10/02 06:29:39;;;;;;;20.43;12.30;;;;;;;;;;5013198;28;20187;-67
2023/10/02 06:32:09;;;;;;;21.67;12.73;;;;;;;;;;5013186;28;20538;-67
2023/10/02 06:34:39;;;;;;;21.23;13.40;;;;;;;;;;5012276;28;20352;-66
2023/10/02 06:37:07;;;;;;;21.93;12.93;;;;;;;;;;5014174;28;20251;-70
2023/10/02 06:39:36;;;;;;;20.17;12.60;;;;;;;;;;5014295;28;20176;-67
2023/10/02 06:42:05;;;;;;;21.27;12.30;;;;;;;;;;5014175;28;20168;-67
2023/10/02 06:44:42;;;;;;;25.40;13.03;;;;;;;;;;5013139;28;20191;-67
2023/10/02 06:47:11;;;;;;;24.27;13.53;;;;;;;;;;5012582;28;20614;-67
2023/10/02 06:49:39;;;;;;;21.83;12.47;;;;;;;;;;5012411;28;20210;-67
2023/10/02 06:52:13;;;;;;;21.50;12.37;;;;;;;;;;5012653;28;20259;-67
2023/10/02 06:54:45;;;;;;;18.43;12.30;;;;;;;;;;5012904;28;20233;-67
2023/10/02 06:57:13;;;;;;;20.43;12.87;;;;;;;;;;5012970;28;20590;-67
2023/10/02 06:59:39;;;;;;;21.13;12.50;;;;;;;;;;5012498;28;20172;-67
2023/10/02 07:02:06;;;;;;;23.90;12.67;;;;;;;;;;5012513;28;20180;-67
2023/10/02 07:04:35;;;;;;;26.10;13.13;;;;;;;;;;5012433;28;20655;-67
2023/10/02 07:07:07;;;;;;;21.73;12.60;;;;;;;;;;5014524;28;20187;-67
2023/10/02 07:09:37;;;;;;;21.90;12.60;;;;;;;;;;5014937;28;20298;-67
2023/10/02 07:12:13;;;;;;;22.53;13.20;;;;;;;;;;5016126;28;20630;-66
2023/10/02 07:14:40;;;;;;;18.10;11.87;;;;;;;;;;5015658;28;20211;-66
2023/10/02 07:17:22;;;;;;;23.83;11.97;;;;;;;;;;5016041;28;20226;-67
2023/10/02 07:19:49;;;;;;;24.03;13.50;;;;;;;;;;5015735;28;20156;-67
2023/10/02 07:22:16;;;;;;;19.47;12.67;;;;;;;;;;5014625;28;20267;-67
2023/10/02 07:24:46;;;;;;;22.57;12.97;;;;;;;;;;5016129;28;20196;-67
2023/10/02 07:27:23;;;;;;;20.97;13.60;;;;;;;;;;5016075;28;20254;-67
2023/10/02 07:29:51;;;;;;;23.00;13.93;;;;;;;;;;5015800;28;20171;-66
2023/10/02 07:32:18;;;;;;;24.17;13.53;;;;;;;;;;5014235;28;20212;-66
2023/10/02 07:34:45;;;;;;;21.53;12.73;;;;;;;;;;5016099;28;20294;-66
2023/10/02 07:37:13;;;;;;;21.80;13.27;;;;;;;;;;5015547;28;20168;-66
2023/10/02 07:39:39;;;;;;;25.67;14.17;;;;;;;;;;5015621;28;20176;-66
2023/10/02 07:42:06;;;;;;;21.90;13.23;;;;;;;;;;5014148;28;20219;-66
2023/10/02 07:44:39;;;;;;;28.37;15.70;;;;;;;;;;5015369;28;20199;-66
2023/10/02 07:47:16;;;;;;;24.07;14.20;;;;;;;;;;5015257;28;20636;-66
2023/10/02 07:49:46;;;;;;;24.83;13.03;;;;;;;;;;5015496;28;20167;-67
2023/10/02 07:52:26;;;;;;;23.10;13.37;;;;;;;;;;5015644;28;20293;-66
2023/10/02 07:54:56;;;;;;;27.70;15.03;;;;;;;;;;5015885;28;20203;-66
2023/10/02 07:57:26;;;;;;;25.87;15.80;;;;;;;;;;5014476;28;20258;-65
2023/10/02 07:59:53;;;;;;;24.50;14.93;;;;;;;;;;5016116;28;20196;-65
2023/10/02 08:02:23;;;;;;;21.90;14.13;;;;;;;;;;5014751;28;20203;-68
2023/10/02 08:04:51;;;;;;;28.20;16.50;;;;;;;;;;5013876;28;20587;-68
2023/10/02 08:07:17;;;;;;;26.33;14.60;;;;;;;;;;5013489;28;20172;-68
2023/10/02 08:09:47;;;;;;;27.63;14.80;;;;;;;;;;5014923;28;20179;-68
2023/10/02 08:12:29;;;;;;;24.03;13.73;;;;;;;;;;5014949;28;20649;-68
2023/10/02 08:14:58;;;;;;;24.83;14.43;;;;;;;;;;5014594;28;20834;-68
2023/10/02 08:17:59;;;;;;;26.77;14.93;;;;;;;;;;5013298;28;20503;-68
2023/10/02 08:20:16;;;;;;;29.57;15.37;;;;;;;;;;5014498;28;20194;-68
2023/10/02 08:22:46;;;;;;;31.77;15.73;;;;;;;;;;5014630;28;20183;-68
2023/10/02 08:25:13;;;;;;;31.27;17.23;;;;;;;;;;5013237;28;20200;-68
2023/10/02 08:27:39;;;;;;;32.63;16.97;;;;;;;;;;5014517;28;20657;-68
2023/10/02 08:30:18;;;;;;;31.33;16.20;;;;;;;;;;5014391;28;20730;-69
2023/10/02 08:32:45;;;;;;;30.03;16.00;;;;;;;;;;5013886;28;20592;-68
2023/10/02 08:35:13;;;;;;;30.83;18.53;;;;;;;;;;5013181;28;20226;-68
2023/10/02 08:37:40;;;;;;;34.50;18.13;;;;;;;;;;5013487;28;20724;-68
2023/10/02 08:40:08;;;;;;;28.27;16.90;;;;;;;;;;5014926;28;20180;-68
2023/10/02 08:42:34;;;;;;;31.00;17.57;;;;;;;;;;5014748;28;20182;-68
2023/10/02 08:45:00;;;;;;;34.00;19.00;;;;;;;;;;5014546;28;20636;-69
2023/10/02 08:47:27;;;;;;;33.60;19.80;;;;;;;;;;5014462;28;20218;-68
2023/10/02 08:50:04;;;;;;;33.43;20.40;;;;;;;;;;5014672;28;20202;-68
2023/10/02 08:52:47;;;;;;;33.00;20.37;;;;;;;;;;5015307;28;20196;-68
2023/10/02 08:55:33;;;;;;;35.10;19.47;;;;;;;;;;5015492;28;20208;-68
2023/10/02 08:58:15;;;;;;;36.93;20.27;;;;;;;;;;5013855;28;20172;-68
2023/10/02 09:01:06;;;;;;;32.13;18.87;;;;;;;;;;5016397;28;20159;-68
2023/10/02 09:03:41;;;;;;;26.77;18.07;;;;;;;;;;5018461;28;20194;-68
2023/10/02 09:06:28;;;;;;;32.63;17.37;;;;;;;;;;5017269;28;20192;-68
2023/10/02 09:09:17;;;;;;;28.20;17.13;;;;;;;;;;5014344;28;20634;-68
2023/10/02 09:11:52;;;;;;;31.57;17.10;;;;;;;;;;5013213;28;20168;-68
2023/10/02 09:19:49;;;;;;;27.83;18.23;;;;;;;;;;5015298;28;20170;-67
2023/10/02 09:22:18;;;;;;;29.27;18.27;;;;;;;;;;5014723;28;20681;-66
2023/10/02 09:24:58;;;;;;;27.30;16.70;;;;;;;;;;5014821;28;20208;-67
2023/10/02 09:27:30;;;;;;;27.10;16.10;;;;;;;;;;5013264;28;20179;-68
2023/10/02 09:32:52;;;;;;;24.53;15.50;;;;;;;;;;5015614;28;20270;-68
2023/10/02 09:35:23;;;;;;;26.10;15.80;;;;;;;;;;5012809;28;20219;-68
2023/10/02 09:37:56;;;;;;;25.20;14.53;;;;;;;;;;5014401;28;20690;-68
2023/10/02 09:40:29;;;;;;;23.93;14.70;;;;;;;;;;5014000;28;20190;-69
2023/10/02 09:43:05;;;;;;;23.70;15.23;;;;;;;;;;5012535;28;20223;-68
2023/10/02 09:45:32;;;;;;;23.87;15.10;;;;;;;;;;5012315;28;20235;-68
2023/10/02 09:48:00;;;;;;;27.03;15.13;;;;;;;;;;5013630;28;20226;-68
2023/10/02 09:50:29;;;;;;;24.43;15.30;;;;;;;;;;5012562;28;20183;-68
2023/10/02 09:53:00;;;;;;;23.97;15.30;;;;;;;;;;5014074;28;20186;-69
2023/10/02 09:55:40;;;;;;;24.70;14.87;;;;;;;;;;5013057;28;20601;-69
2023/10/02 09:58:26;;;;;;;25.30;14.63;;;;;;;;;;5018918;28;20167;-68
2023/10/02 10:03:52;;;;;;;26.77;14.53;;;;;;;;;;5013256;28;20234;-68
2023/10/02 10:06:19;;;;;;;23.90;14.43;;;;;;;;;;5012174;28;20607;-68
2023/10/02 10:11:45;;;;;;;23.00;13.73;;;;;;;;;;5013297;28;20174;-69
2023/10/02 10:14:42;;;;;;;23.13;14.77;;;;;;;;;;5013383;28;20378;-70
2023/10/02 10:17:17;;;;;;;25.60;14.83;;;;;;;;;;5013914;28;20176;-68
2023/10/02 10:19:49;;;;;;;25.90;14.57;;;;;;;;;;5011812;28;20188;-68
2023/10/02 10:22:34;;;;;;;25.27;15.90;;;;;;;;;;5013277;28;20180;-69
2023/10/02 10:27:39;;;;;;;24.67;15.57;;;;;;;;;;5013572;28;20237;-68
2023/10/02 10:33:13;;;;;;;23.20;14.47;;;;;;;;;;5013693;28;20726;-68
2023/10/02 10:35:48;;;;;;;23.03;15.50;;;;;;;;;;5012877;28;20232;-68
2023/10/02 10:40:55;;;;;;;26.23;15.20;;;;;;;;;;5015683;28;20613;-68
2023/10/02 10:46:12;;;;;;;25.33;15.27;;;;;;;;;;5017557;28;20234;-68
2023/10/02 10:48:40;;;;;;;24.13;15.53;;;;;;;;;;5015658;28;20230;-68
2023/10/02 10:51:20;;;;;;;25.03;15.50;;;;;;;;;;5016793;28;20218;-68
2023/10/02 10:53:47;;;;;;;25.07;16.23;;;;;;;;;;5016907;28;20199;-69
2023/10/02 10:56:19;;;;;;;29.67;17.10;;;;;;;;;;5016907;28;20629;-69
2023/10/02 10:58:52;;;;;;;24.43;16.27;;;;;;;;;;5016724;28;20235;-70
2023/10/02 11:01:20;;;;;;;28.27;15.57;;;;;;;;;;5015450;28;20180;-70
2023/10/02 11:03:54;;;;;;;31.33;16.70;;;;;;;;;;5017143;28;20267;-69
2023/10/02 11:06:21;;;;;;;25.33;15.63;;;;;;;;;;5016734;28;20200;-70
2023/10/02 11:09:11;;;;;;;25.80;15.50;;;;;;;;;;5016314;28;20182;-70
2023/10/02 11:11:49;;;;;;;27.70;16.63;;;;;;;;;;5014480;28;20180;-70
2023/10/02 11:14:20;;;;;;;30.97;15.30;;;;;;;;;;5015719;28;20194;-70
2023/10/02 11:16:50;;;;;;;28.80;14.97;;;;;;;;;;5016260;28;20162;-70
2023/10/02 11:22:02;;;;;;;27.80;17.97;;;;;;;;;;5016420;28;20211;-71
2023/10/02 11:24:28;;;;;;;24.90;15.77;;;;;;;;;;5015569;28;20203;-70
2023/10/02 11:27:04;;;;;;;26.23;15.43;;;;;;;;;;5030511;23;20235;-71
2023/10/02 11:29:40;;;;;;;29.33;15.93;;;;;;;;;;5016882;28;20170;-68
2023/10/02 11:32:27;;;;;;;25.57;15.43;;;;;;;;;;5016212;28;20269;-70
2023/10/02 11:34:59;;;;;;;27.07;16.43;;;;;;;;;;5016757;28;20274;-68
2023/10/02 11:37:26;;;;;;;28.03;16.03;;;;;;;;;;5016558;28;20195;-68
2023/10/02 11:39:55;;;;;;;25.00;14.67;;;;;;;;;;5015361;28;20176;-68
2023/10/02 11:42:22;;;;;;;22.43;14.77;;;;;;;;;;5016860;28;20168;-69
2023/10/02 11:44:48;;;;;;;25.10;15.40;;;;;;;;;;5015872;28;20184;-69
2023/10/02 11:47:14;;;;;;;26.27;15.90;;;;;;;;;;5016422;28;20246;-68
2023/10/02 11:49:40;;;;;;;23.00;15.73;;;;;;;;;;5015279;28;20179;-68
2023/10/02 11:52:07;;;;;;;23.60;14.67;;;;;;;;;;5016126;28;20211;-68
2023/10/02 11:54:42;;;;;;;26.63;15.13;;;;;;;;;;5016543;28;20669;-68
2023/10/02 11:57:09;;;;;;;25.50;15.97;;;;;;;;;;5016620;28;20206;-68
2023/10/02 11:59:37;;;;;;;24.93;15.77;;;;;;;;;;5016391;28;20207;-69
2023/10/02 12:02:04;;;;;;;27.63;15.97;;;;;;;;;;5016835;28;20184;-68
2023/10/02 12:04:30;;;;;;;29.60;16.47;;;;;;;;;;5024498;28;20188;-70
2023/10/02 12:06:56;;;;;;;27.73;15.43;;;;;;;;;;5028868;28;20231;-69
2023/10/02 12:09:23;;;;;;;28.03;17.67;;;;;;;;;;5023821;28;20203;-69
2023/10/02 12:11:49;;;;;;;29.90;18.17;;;;;;;;;;5018054;28;20180;-69
2023/10/02 12:14:15;;;;;;;28.00;17.37;;;;;;;;;;5018282;28;20302;-70
2023/10/02 12:16:41;;;;;;;29.93;15.87;;;;;;;;;;5017215;28;20200;-71
2023/10/02 12:19:10;;;;;;;26.10;14.87;;;;;;;;;;5015649;28;20192;-69
2023/10/02 12:21:36;;;;;;;23.43;15.90;;;;;;;;;;5016566;28;20230;-69
2023/10/02 12:24:03;;;;;;;27.50;16.80;;;;;;;;;;5014690;28;20565;-70
2023/10/02 12:26:29;;;;;;;27.40;15.90;;;;;;;;;;5016302;28;20204;-69
2023/10/02 12:28:55;;;;;;;26.93;15.67;;;;;;;;;;5016265;28;20172;-69
2023/10/02 12:31:23;;;;;;;26.53;15.97;;;;;;;;;;5016000;28;20536;-69
2023/10/02 12:33:56;;;;;;;25.70;15.87;;;;;;;;;;5015935;28;20175;-69
2023/10/02 12:36:23;;;;;;;22.70;14.83;;;;;;;;;;5014378;28;20203;-69
2023/10/02 12:38:50;;;;;;;24.90;14.93;;;;;;;;;;5016516;28;20550;-69
2023/10/02 12:41:20;;;;;;;26.30;15.57;;;;;;;;;;5016386;28;20195;-70
2023/10/02 12:43:47;;;;;;;24.93;14.87;;;;;;;;;;5016069;28;20222;-69
2023/10/02 12:46:14;;;;;;;22.10;14.93;;;;;;;;;;5014420;28;20218;-69
2023/10/02 12:48:41;;;;;;;26.17;15.67;;;;;;;;;;5014364;28;20599;-70
2023/10/02 12:51:07;;;;;;;20.10;13.80;;;;;;;;;;5014550;28;20188;-69
2023/10/02 12:53:37;;;;;;;32.60;15.80;;;;;;;;;;5014473;28;20190;-69
2023/10/02 12:56:07;;;;;;;23.30;14.30;;;;;;;;;;5013953;28;20658;-69
2023/10/02 12:58:35;;;;;;;24.97;15.23;;;;;;;;;;5014567;28;20172;-68
2023/10/02 13:01:01;;;;;;;22.67;15.27;;;;;;;;;;5014917;28;20196;-70
2023/10/02 13:03:32;;;;;;;26.00;14.73;;;;;;;;;;5015766;28;20238;-70
2023/10/02 13:06:03;;;;;;;23.53;15.53;;;;;;;;;;5016483;28;20259;-69
2023/10/02 13:08:29;;;;;;;23.53;14.80;;;;;;;;;;5021358;28;20176;-69
2023/10/02 13:10:55;;;;;;;23.33;14.03;;;;;;;;;;5017500;28;20284;-69
2023/10/02 13:13:22;;;;;;;22.77;14.73;;;;;;;;;;5014246;28;20180;-69
2023/10/02 13:15:48;;;;;;;21.70;14.57;;;;;;;;;;5015220;28;20612;-69
2023/10/02 13:18:15;;;;;;;26.80;15.97;;;;;;;;;;5015212;28;20282;-69
2023/10/02 13:20:43;;;;;;;23.97;15.17;;;;;;;;;;5014941;28;20211;-69
2023/10/02 13:23:09;;;;;;;25.27;15.73;;;;;;;;;;5014630;28;20591;-70
2023/10/02 13:25:35;;;;;;;24.27;15.25;;;;;;;;;;5014364;28;20599;-69
2023/10/02 13:28:01;;;;;;;26.53;15.10;;;;;;;;;;5012676;28;20219;-69
2023/10/02 13:30:30;;;;;;;22.90;15.60;;;;;;;;;;5014513;28;20259;-69
2023/10/02 13:32:56;;;;;;;22.57;14.50;;;;;;;;;;5014415;28;20187;-69
2023/10/02 13:35:23;;;;;;;23.43;14.33;;;;;;;;;;5014445;28;20572;-69
2023/10/02 13:37:50;;;;;;;21.37;14.00;;;;;;;;;;5013026;28;20673;-69
2023/10/02 13:40:26;;;;;;;23.23;14.70;;;;;;;;;;5012989;28;20526;-69
2023/10/02 13:42:53;;;;;;;23.27;14.63;;;;;;;;;;5012985;28;20540;-69
2023/10/02 13:45:19;;;;;;;24.27;15.07;;;;;;;;;;5013366;28;20190;-70
2023/10/02 13:47:48;;;;;;;22.77;14.87;;;;;;;;;;5013807;28;20207;-69
2023/10/02 13:50:15;;;;;;;31.43;15.53;;;;;;;;;;5014300;28;20180;-69
2023/10/02 13:52:42;;;;;;;24.83;16.27;;;;;;;;;;5014075;28;20210;-69
2023/10/02 13:55:30;;;;;;;24.43;14.83;;;;;;;;;;5014544;28;20209;-69
2023/10/02 13:57:56;;;;;;;23.03;14.87;;;;;;;;;;5014254;28;20207;-69
2023/10/02 14:00:24;;;;;;;30.73;16.77;;;;;;;;;;5013390;28;20650;-68
2023/10/02 14:02:51;;;;;;;23.27;14.43;;;;;;;;;;5013836;28;20213;-69
2023/10/02 14:05:18;;;;;;;21.67;14.97;;;;;;;;;;5023023;28;20203;-69
2023/10/02 14:07:48;;;;;;;25.13;15.07;;;;;;;;;;5023292;28;20202;-69
2023/10/02 14:10:15;;;;;;;29.60;17.40;;;;;;;;;;5020891;28;20179;-69
2023/10/02 14:12:44;;;;;;;30.43;16.90;;;;;;;;;;5016335;28;20188;-68
2023/10/02 14:15:14;;;;;;;25.50;16.07;;;;;;;;;;5016642;28;20204;-69
2023/10/02 14:17:43;;;;;;;25.30;15.13;;;;;;;;;;5018044;28;20305;-69
2023/10/02 14:20:15;;;;;;;28.20;15.53;;;;;;;;;;5018331;28;20179;-69
2023/10/02 14:22:42;;;;;;;22.25;14.85;;;;;;;;;;5018061;28;20585;-69
2023/10/02 14:25:09;;;;;;;26.30;17.00;;;;;;;;;;5016729;28;20668;-68
2023/10/02 14:27:35;;;;;;;26.48;15.65;;;;;;;;;;5017503;28;20222;-69
2023/10/02 14:30:02;;;;;;;19.65;14.65;;;;;;;;;;5016358;28;20184;-68
2023/10/02 14:32:28;;;;;;;30.45;16.23;;;;;;;;;;5016344;28;20183;-69
2023/10/02 14:34:54;;;;;;;23.90;15.57;;;;;;;;;;5016218;28;20264;-70
2023/10/02 14:37:22;;;;;;;23.02;15.57;;;;;;;;;;5016439;28;20263;-69
2023/10/02 14:39:50;;;;;;;27.10;15.88;;;;;;;;;;5017845;28;20194;-69
2023/10/02 14:42:18;;;;;;;26.52;14.88;;;;;;;;;;5017619;28;20187;-69
2023/10/02 14:44:44;;;;;;;29.23;15.23;;;;;;;;;;5017800;28;20179;-69
2023/10/02 14:47:11;;;;;;;27.67;14.98;;;;;;;;;;5017270;28;20200;-69
2023/10/02 14:49:38;;;;;;;25.63;15.38;;;;;;;;;;5016443;28;20179;-69
2023/10/02 14:52:04;;;;;;;27.42;15.05;;;;;;;;;;5016249;28;20179;-69
2023/10/02 14:54:30;;;;;;;26.42;14.93;;;;;;;;;;5017438;28;20254;-69
2023/10/02 14:56:56;;;;;;;23.52;14.85;;;;;;;;;;5017392;28;20700;-69
2023/10/02 14:59:22;;;;;;;19.90;14.30;;;;;;;;;;5016150;28;20198;-69
2023/10/02 15:01:49;;;;;;;24.55;15.30;;;;;;;;;;5016740;28;20188;-69
2023/10/02 15:04:16;;;;;;;22.40;15.47;;;;;;;;;;5017696;28;20175;-71
2023/10/02 15:06:43;;;;;;;22.50;15.82;;;;;;;;;;5015967;28;20211;-68
2023/10/02 15:09:09;;;;;;;26.73;15.70;;;;;;;;;;5015996;28;20212;-69
2023/10/02 15:11:38;;;;;;;23.85;15.35;;;;;;;;;;5020331;28;20642;-69
2023/10/02 15:14:08;;;;;;;24.13;15.50;;;;;;;;;;5020390;28;20203;-69
2023/10/02 15:16:37;;;;;;;23.20;15.33;;;;;;;;;;5017845;28;20279;-69
2023/10/02 15:19:03;;;;;;;28.23;16.27;;;;;;;;;;5016550;28;20662;-69
2023/10/02 15:21:29;;;;;;;24.83;15.73;;;;;;;;;;5016445;28;20180;-69
2023/10/02 15:23:58;;;;;;;26.00;15.33;;;;;;;;;;5016919;28;20183;-69
2023/10/02 15:26:24;;;;;;;28.15;15.93;;;;;;;;;;5015195;28;20557;-68
2023/10/02 15:28:50;;;;;;;25.95;15.70;;;;;;;;;;5016804;28;20243;-69